sensor_id;sensor_type;location;lat;lon;timestamp;pressure;altitude;pressure_sealevel;temperature
71081;BMP180;58740;50.672;18.690;2023-04-26T00:00:00;98484.00;;;9.14
71081;BMP180;58740;50.672;18.690;2023-04-26T00:02:28;98479.60;;;9.10
71081;BMP180;58740;50.672;18.690;2023-04-26T00:04:56;98483.40;;;9.10
71081;BMP180;58740;50.672;18.690;2023-04-26T00:07:25;98485.40;;;9.02
71081;BMP180;58740;50.672;18.690;2023-04-26T00:09:55;98483.00;;;9.00
71081;BMP180;58740;50.672;18.690;2023-04-26T00:12:23;98485.60;;;8.90
71081;BMP180;58740;50.672;18.690;2023-04-26T00:14:51;98485.20;;;8.90
71081;BMP180;58740;50.672;18.690;2023-04-26T00:17:19;98494.60;;;8.90
71081;BMP180;58740;50.672;18.690;2023-04-26T00:19:47;98490.60;;;8.88
71081;BMP180;58740;50.672;18.690;2023-04-26T00:22:14;98491.00;;;8.80
71081;BMP180;58740;50.672;18.690;2023-04-26T00:24:42;98491.00;;;8.72
71081;BMP180;58740;50.672;18.690;2023-04-26T00:27:10;98489.00;;;8.70
71081;BMP180;58740;50.672;18.690;2023-04-26T00:29:38;98489.40;;;8.70
71081;BMP180;58740;50.672;18.690;2023-04-26T00:32:06;98488.80;;;8.66
71081;BMP180;58740;50.672;18.690;2023-04-26T00:34:36;98493.40;;;8.60
71081;BMP180;58740;50.672;18.690;2023-04-26T00:37:04;98487.80;;;8.50
71081;BMP180;58740;50.672;18.690;2023-04-26T00:39:32;98494.80;;;8.50
71081;BMP180;58740;50.672;18.690;2023-04-26T00:42:00;98494.40;;;8.48
71081;BMP180;58740;50.672;18.690;2023-04-26T00:44:28;98496.40;;;8.40
71081;BMP180;58740;50.672;18.690;2023-04-26T00:46:56;98501.60;;;8.40
71081;BMP180;58740;50.672;18.690;2023-04-26T00:49:24;98497.60;;;8.40
71081;BMP180;58740;50.672;18.690;2023-04-26T00:51:53;98498.40;;;8.30
71081;BMP180;58740;50.672;18.690;2023-04-26T00:54:22;98492.40;;;8.30
71081;BMP180;58740;50.672;18.690;2023-04-26T00:56:50;98497.60;;;8.26
71081;BMP180;58740;50.672;18.690;2023-04-26T00:59:20;98494.20;;;8.20
71081;BMP180;58740;50.672;18.690;2023-04-26T01:01:47;98496.20;;;8.10
71081;BMP180;58740;50.672;18.690;2023-04-26T01:04:16;98500.60;;;8.10
71081;BMP180;58740;50.672;18.690;2023-04-26T01:06:45;98497.20;;;8.10
71081;BMP180;58740;50.672;18.690;2023-04-26T01:09:13;98497.80;;;8.08
71081;BMP180;58740;50.672;18.690;2023-04-26T01:11:43;98499.40;;;8.00
71081;BMP180;58740;50.672;18.690;2023-04-26T01:14:13;98494.60;;;8.00
71081;BMP180;58740;50.672;18.690;2023-04-26T01:16:41;98493.40;;;7.96
71081;BMP180;58740;50.672;18.690;2023-04-26T01:19:10;98498.00;;;7.90
71081;BMP180;58740;50.672;18.690;2023-04-26T01:21:41;98493.80;;;7.90
71081;BMP180;58740;50.672;18.690;2023-04-26T01:24:12;98496.40;;;7.90
71081;BMP180;58740;50.672;18.690;2023-04-26T01:26:40;98498.20;;;7.90
71081;BMP180;58740;50.672;18.690;2023-04-26T01:29:20;98497.60;;;7.86
71081;BMP180;58740;50.672;18.690;2023-04-26T01:31:48;98495.00;;;7.80
71081;BMP180;58740;50.672;18.690;2023-04-26T01:34:15;98500.80;;;7.80
71081;BMP180;58740;50.672;18.690;2023-04-26T01:36:43;98504.00;;;7.80
71081;BMP180;58740;50.672;18.690;2023-04-26T01:39:11;98504.20;;;7.70
71081;BMP180;58740;50.672;18.690;2023-04-26T01:41:39;98507.20;;;7.70
71081;BMP180;58740;50.672;18.690;2023-04-26T01:44:07;98505.60;;;7.70
71081;BMP180;58740;50.672;18.690;2023-04-26T01:46:34;98509.00;;;7.60
71081;BMP180;58740;50.672;18.690;2023-04-26T01:49:02;98510.00;;;7.60
71081;BMP180;58740;50.672;18.690;2023-04-26T01:51:30;98508.60;;;7.60
71081;BMP180;58740;50.672;18.690;2023-04-26T01:53:58;98508.40;;;7.50
71081;BMP180;58740;50.672;18.690;2023-04-26T01:56:25;98506.20;;;7.50
71081;BMP180;58740;50.672;18.690;2023-04-26T01:58:54;98510.40;;;7.44
71081;BMP180;58740;50.672;18.690;2023-04-26T02:01:23;98515.40;;;7.40
71081;BMP180;58740;50.672;18.690;2023-04-26T02:03:51;98512.40;;;7.40
71081;BMP180;58740;50.672;18.690;2023-04-26T02:06:20;98513.40;;;7.40
71081;BMP180;58740;50.672;18.690;2023-04-26T02:08:48;98507.20;;;7.40
71081;BMP180;58740;50.672;18.690;2023-04-26T02:11:16;98510.60;;;7.30
71081;BMP180;58740;50.672;18.690;2023-04-26T02:13:44;98515.00;;;7.30
71081;BMP180;58740;50.672;18.690;2023-04-26T02:16:11;98515.60;;;7.30
71081;BMP180;58740;50.672;18.690;2023-04-26T02:18:39;98516.40;;;7.20
71081;BMP180;58740;50.672;18.690;2023-04-26T02:21:10;98512.80;;;7.20
71081;BMP180;58740;50.672;18.690;2023-04-26T02:23:38;98513.60;;;7.20
71081;BMP180;58740;50.672;18.690;2023-04-26T02:26:06;98514.20;;;7.20
71081;BMP180;58740;50.672;18.690;2023-04-26T02:28:33;98518.80;;;7.12
71081;BMP180;58740;50.672;18.690;2023-04-26T02:31:01;98519.20;;;7.10
71081;BMP180;58740;50.672;18.690;2023-04-26T02:33:29;98518.80;;;7.10
71081;BMP180;58740;50.672;18.690;2023-04-26T02:35:58;98520.60;;;7.10
71081;BMP180;58740;50.672;18.690;2023-04-26T02:38:25;98519.60;;;7.10
71081;BMP180;58740;50.672;18.690;2023-04-26T02:41:01;98519.40;;;7.00
71081;BMP180;58740;50.672;18.690;2023-04-26T02:43:29;98523.00;;;7.00
71081;BMP180;58740;50.672;18.690;2023-04-26T02:45:57;98520.00;;;7.00
71081;BMP180;58740;50.672;18.690;2023-04-26T02:48:27;98522.80;;;6.92
71081;BMP180;58740;50.672;18.690;2023-04-26T02:50:55;98522.20;;;6.90
71081;BMP180;58740;50.672;18.690;2023-04-26T02:53:23;98524.00;;;6.90
71081;BMP180;58740;50.672;18.690;2023-04-26T02:55:51;98523.80;;;6.90
71081;BMP180;58740;50.672;18.690;2023-04-26T02:58:19;98520.00;;;6.90
71081;BMP180;58740;50.672;18.690;2023-04-26T03:00:48;98523.20;;;6.82
71081;BMP180;58740;50.672;18.690;2023-04-26T03:03:15;98520.80;;;6.80
71081;BMP180;58740;50.672;18.690;2023-04-26T03:05:44;98522.00;;;6.80
71081;BMP180;58740;50.672;18.690;2023-04-26T03:08:13;98523.60;;;6.72
71081;BMP180;58740;50.672;18.690;2023-04-26T03:10:41;98519.80;;;6.70
71081;BMP180;58740;50.672;18.690;2023-04-26T03:13:10;98521.60;;;6.62
71081;BMP180;58740;50.672;18.690;2023-04-26T03:15:44;98519.80;;;6.60
71081;BMP180;58740;50.672;18.690;2023-04-26T03:18:12;98527.60;;;6.60
71081;BMP180;58740;50.672;18.690;2023-04-26T03:20:41;98524.60;;;6.60
71081;BMP180;58740;50.672;18.690;2023-04-26T03:23:09;98536.40;;;6.50
71081;BMP180;58740;50.672;18.690;2023-04-26T03:25:37;98528.60;;;6.50
71081;BMP180;58740;50.672;18.690;2023-04-26T03:28:05;98534.40;;;6.50
71081;BMP180;58740;50.672;18.690;2023-04-26T03:30:33;98531.20;;;6.50
71081;BMP180;58740;50.672;18.690;2023-04-26T03:33:00;98534.20;;;6.48
71081;BMP180;58740;50.672;18.690;2023-04-26T03:35:28;98537.60;;;6.50
71081;BMP180;58740;50.672;18.690;2023-04-26T03:37:56;98535.80;;;6.42
71081;BMP180;58740;50.672;18.690;2023-04-26T03:40:25;98543.00;;;6.40
71081;BMP180;58740;50.672;18.690;2023-04-26T03:42:53;98542.20;;;6.40
71081;BMP180;58740;50.672;18.690;2023-04-26T03:45:20;98549.20;;;6.40
71081;BMP180;58740;50.672;18.690;2023-04-26T03:47:48;98546.60;;;6.40
71081;BMP180;58740;50.672;18.690;2023-04-26T03:50:16;98550.00;;;6.30
71081;BMP180;58740;50.672;18.690;2023-04-26T03:52:44;98550.20;;;6.30
71081;BMP180;58740;50.672;18.690;2023-04-26T03:55:12;98557.00;;;6.30
71081;BMP180;58740;50.672;18.690;2023-04-26T03:57:40;98561.60;;;6.30
71081;BMP180;58740;50.672;18.690;2023-04-26T04:00:08;98567.80;;;6.30
71081;BMP180;58740;50.672;18.690;2023-04-26T04:02:39;98565.20;;;6.30
71081;BMP180;58740;50.672;18.690;2023-04-26T04:05:08;98566.60;;;6.32
71081;BMP180;58740;50.672;18.690;2023-04-26T04:07:36;98570.00;;;6.30
71081;BMP180;58740;50.672;18.690;2023-04-26T04:10:05;98571.00;;;6.34
71081;BMP180;58740;50.672;18.690;2023-04-26T04:12:33;98576.20;;;6.30
71081;BMP180;58740;50.672;18.690;2023-04-26T04:15:01;98583.60;;;6.30
71081;BMP180;58740;50.672;18.690;2023-04-26T04:17:29;98585.00;;;6.30
71081;BMP180;58740;50.672;18.690;2023-04-26T04:19:57;98583.20;;;6.30
71081;BMP180;58740;50.672;18.690;2023-04-26T04:22:24;98584.20;;;6.30
71081;BMP180;58740;50.672;18.690;2023-04-26T04:24:52;98592.40;;;6.30
71081;BMP180;58740;50.672;18.690;2023-04-26T04:27:20;98594.60;;;6.30
71081;BMP180;58740;50.672;18.690;2023-04-26T04:29:49;98589.80;;;6.30
71081;BMP180;58740;50.672;18.690;2023-04-26T04:32:16;98596.80;;;6.30
71081;BMP180;58740;50.672;18.690;2023-04-26T04:34:45;98597.60;;;6.30
71081;BMP180;58740;50.672;18.690;2023-04-26T04:37:16;98598.20;;;6.30
71081;BMP180;58740;50.672;18.690;2023-04-26T04:39:44;98603.00;;;6.30
71081;BMP180;58740;50.672;18.690;2023-04-26T04:42:12;98610.80;;;6.40
71081;BMP180;58740;50.672;18.690;2023-04-26T04:44:40;98607.20;;;6.40
71081;BMP180;58740;50.672;18.690;2023-04-26T04:47:08;98614.00;;;6.40
71081;BMP180;58740;50.672;18.690;2023-04-26T04:49:36;98614.60;;;6.48
71081;BMP180;58740;50.672;18.690;2023-04-26T04:52:04;98612.80;;;6.50
71081;BMP180;58740;50.672;18.690;2023-04-26T04:54:33;98620.20;;;6.50
71081;BMP180;58740;50.672;18.690;2023-04-26T04:57:01;98616.20;;;6.50
71081;BMP180;58740;50.672;18.690;2023-04-26T04:59:29;98619.20;;;6.50
71081;BMP180;58740;50.672;18.690;2023-04-26T05:01:58;98623.40;;;6.60
71081;BMP180;58740;50.672;18.690;2023-04-26T05:04:25;98628.60;;;6.60
71081;BMP180;58740;50.672;18.690;2023-04-26T05:06:54;98625.00;;;6.70
71081;BMP180;58740;50.672;18.690;2023-04-26T05:09:21;98628.80;;;6.70
71081;BMP180;58740;50.672;18.690;2023-04-26T05:11:49;98625.40;;;6.80
71081;BMP180;58740;50.672;18.690;2023-04-26T05:14:17;98630.60;;;6.80
71081;BMP180;58740;50.672;18.690;2023-04-26T05:16:44;98635.20;;;6.90
71081;BMP180;58740;50.672;18.690;2023-04-26T05:19:13;98632.60;;;6.90
71081;BMP180;58740;50.672;18.690;2023-04-26T05:21:41;98638.60;;;6.90
71081;BMP180;58740;50.672;18.690;2023-04-26T05:24:08;98640.40;;;7.00
71081;BMP180;58740;50.672;18.690;2023-04-26T05:26:36;98640.00;;;7.10
71081;BMP180;58740;50.672;18.690;2023-04-26T05:29:04;98646.80;;;7.14
71081;BMP180;58740;50.672;18.690;2023-04-26T05:31:32;98644.80;;;7.20
71081;BMP180;58740;50.672;18.690;2023-04-26T05:33:59;98645.20;;;7.30
71081;BMP180;58740;50.672;18.690;2023-04-26T05:36:27;98642.80;;;7.32
71081;BMP180;58740;50.672;18.690;2023-04-26T05:38:56;98644.60;;;7.40
71081;BMP180;58740;50.672;18.690;2023-04-26T05:41:24;98641.40;;;7.44
71081;BMP180;58740;50.672;18.690;2023-04-26T05:43:51;98643.40;;;7.50
71081;BMP180;58740;50.672;18.690;2023-04-26T05:46:19;98650.40;;;7.60
71081;BMP180;58740;50.672;18.690;2023-04-26T05:48:48;98651.80;;;7.70
71081;BMP180;58740;50.672;18.690;2023-04-26T05:51:16;98643.80;;;7.80
71081;BMP180;58740;50.672;18.690;2023-04-26T05:53:43;98649.40;;;7.90
71081;BMP180;58740;50.672;18.690;2023-04-26T05:56:11;98646.00;;;8.00
71081;BMP180;58740;50.672;18.690;2023-04-26T05:58:39;98649.60;;;8.00
71081;BMP180;58740;50.672;18.690;2023-04-26T06:01:07;98646.80;;;8.10
71081;BMP180;58740;50.672;18.690;2023-04-26T06:03:35;98650.80;;;8.10
71081;BMP180;58740;50.672;18.690;2023-04-26T06:06:04;98648.60;;;8.20
71081;BMP180;58740;50.672;18.690;2023-04-26T06:08:33;98653.20;;;8.30
71081;BMP180;58740;50.672;18.690;2023-04-26T06:11:00;98653.80;;;8.40
71081;BMP180;58740;50.672;18.690;2023-04-26T06:13:28;98653.20;;;8.44
71081;BMP180;58740;50.672;18.690;2023-04-26T06:15:58;98647.40;;;8.52
71081;BMP180;58740;50.672;18.690;2023-04-26T06:18:26;98654.60;;;8.68
71081;BMP180;58740;50.672;18.690;2023-04-26T06:20:53;98658.60;;;8.74
71081;BMP180;58740;50.672;18.690;2023-04-26T06:23:21;98660.40;;;8.80
71081;BMP180;58740;50.672;18.690;2023-04-26T06:25:49;98662.40;;;8.90
71081;BMP180;58740;50.672;18.690;2023-04-26T06:28:17;98660.20;;;8.96
71081;BMP180;58740;50.672;18.690;2023-04-26T06:30:44;98664.00;;;9.00
71081;BMP180;58740;50.672;18.690;2023-04-26T06:33:12;98657.80;;;9.10
71081;BMP180;58740;50.672;18.690;2023-04-26T06:35:41;98650.00;;;9.10
71081;BMP180;58740;50.672;18.690;2023-04-26T06:38:09;98657.80;;;9.20
71081;BMP180;58740;50.672;18.690;2023-04-26T06:40:39;98652.60;;;9.30
71081;BMP180;58740;50.672;18.690;2023-04-26T06:43:06;98656.60;;;9.30
71081;BMP180;58740;50.672;18.690;2023-04-26T06:45:34;98656.40;;;9.32
71081;BMP180;58740;50.672;18.690;2023-04-26T06:48:02;98641.80;;;9.40
71081;BMP180;58740;50.672;18.690;2023-04-26T06:50:32;98643.40;;;9.40
71081;BMP180;58740;50.672;18.690;2023-04-26T06:53:00;98646.00;;;9.54
71081;BMP180;58740;50.672;18.690;2023-04-26T06:55:27;98648.20;;;9.68
71081;BMP180;58740;50.672;18.690;2023-04-26T06:57:55;98647.60;;;9.70
71081;BMP180;58740;50.672;18.690;2023-04-26T07:00:23;98646.20;;;9.80
71081;BMP180;58740;50.672;18.690;2023-04-26T07:02:51;98648.60;;;9.80
71081;BMP180;58740;50.672;18.690;2023-04-26T07:05:19;98652.60;;;9.80
71081;BMP180;58740;50.672;18.690;2023-04-26T07:07:47;98647.20;;;9.80
71081;BMP180;58740;50.672;18.690;2023-04-26T07:10:17;98651.00;;;9.80
71081;BMP180;58740;50.672;18.690;2023-04-26T07:12:45;98649.00;;;9.80
71081;BMP180;58740;50.672;18.690;2023-04-26T07:15:13;98653.60;;;9.80
71081;BMP180;58740;50.672;18.690;2023-04-26T07:17:40;98653.60;;;9.90
71081;BMP180;58740;50.672;18.690;2023-04-26T07:20:09;98652.80;;;10.00
71081;BMP180;58740;50.672;18.690;2023-04-26T07:22:37;98649.20;;;10.18
71081;BMP180;58740;50.672;18.690;2023-04-26T07:25:05;98658.40;;;10.20
71081;BMP180;58740;50.672;18.690;2023-04-26T07:27:34;98654.00;;;10.26
71081;BMP180;58740;50.672;18.690;2023-04-26T07:30:03;98656.60;;;10.40
71081;BMP180;58740;50.672;18.690;2023-04-26T07:32:31;98654.40;;;10.44
71081;BMP180;58740;50.672;18.690;2023-04-26T07:34:59;98655.00;;;10.50
71081;BMP180;58740;50.672;18.690;2023-04-26T07:37:27;98660.00;;;10.50
71081;BMP180;58740;50.672;18.690;2023-04-26T07:39:55;98657.20;;;10.40
71081;BMP180;58740;50.672;18.690;2023-04-26T07:42:23;98659.60;;;10.44
71081;BMP180;58740;50.672;18.690;2023-04-26T07:44:51;98659.00;;;10.50
71081;BMP180;58740;50.672;18.690;2023-04-26T07:47:18;98664.80;;;10.50
71081;BMP180;58740;50.672;18.690;2023-04-26T07:49:52;98666.80;;;10.60
71081;BMP180;58740;50.672;18.690;2023-04-26T07:52:20;98670.80;;;10.70
71081;BMP180;58740;50.672;18.690;2023-04-26T07:54:47;98664.40;;;10.64
71081;BMP180;58740;50.672;18.690;2023-04-26T07:57:15;98678.80;;;10.70
71081;BMP180;58740;50.672;18.690;2023-04-26T07:59:43;98675.20;;;10.60
71081;BMP180;58740;50.672;18.690;2023-04-26T08:02:10;98673.40;;;10.40
71081;BMP180;58740;50.672;18.690;2023-04-26T08:04:46;98671.60;;;10.40
71081;BMP180;58740;50.672;18.690;2023-04-26T08:07:15;98673.80;;;10.46
71081;BMP180;58740;50.672;18.690;2023-04-26T08:09:44;98681.60;;;10.40
71081;BMP180;58740;50.672;18.690;2023-04-26T08:12:12;98684.60;;;10.40
71081;BMP180;58740;50.672;18.690;2023-04-26T08:14:39;98683.60;;;10.30
71081;BMP180;58740;50.672;18.690;2023-04-26T08:17:07;98680.40;;;10.38
71081;BMP180;58740;50.672;18.690;2023-04-26T08:19:38;98668.00;;;10.32
71081;BMP180;58740;50.672;18.690;2023-04-26T08:22:07;98671.00;;;10.22
71081;BMP180;58740;50.672;18.690;2023-04-26T08:24:35;98676.60;;;10.20
71081;BMP180;58740;50.672;18.690;2023-04-26T08:27:03;98669.00;;;10.20
71081;BMP180;58740;50.672;18.690;2023-04-26T08:29:31;98665.20;;;10.20
71081;BMP180;58740;50.672;18.690;2023-04-26T08:31:58;98677.80;;;10.20
71081;BMP180;58740;50.672;18.690;2023-04-26T08:34:26;98673.40;;;10.30
71081;BMP180;58740;50.672;18.690;2023-04-26T08:36:55;98672.00;;;10.40
71081;BMP180;58740;50.672;18.690;2023-04-26T08:39:23;98671.20;;;10.60
71081;BMP180;58740;50.672;18.690;2023-04-26T08:42:03;98676.40;;;10.60
71081;BMP180;58740;50.672;18.690;2023-04-26T08:44:34;98679.20;;;10.60
71081;BMP180;58740;50.672;18.690;2023-04-26T08:47:12;98676.20;;;10.50
71081;BMP180;58740;50.672;18.690;2023-04-26T08:49:44;98674.20;;;10.40
71081;BMP180;58740;50.672;18.690;2023-04-26T08:52:14;98665.00;;;10.40
71081;BMP180;58740;50.672;18.690;2023-04-26T08:54:45;98676.00;;;10.40
71081;BMP180;58740;50.672;18.690;2023-04-26T08:57:14;98686.00;;;10.40
71081;BMP180;58740;50.672;18.690;2023-04-26T08:59:42;98678.00;;;10.42
71081;BMP180;58740;50.672;18.690;2023-04-26T09:02:16;98681.20;;;10.50
71081;BMP180;58740;50.672;18.690;2023-04-26T09:04:46;98679.40;;;10.58
71081;BMP180;58740;50.672;18.690;2023-04-26T09:07:29;98680.60;;;10.70
71081;BMP180;58740;50.672;18.690;2023-04-26T09:09:59;98680.80;;;10.70
71081;BMP180;58740;50.672;18.690;2023-04-26T09:12:27;98679.20;;;10.70
71081;BMP180;58740;50.672;18.690;2023-04-26T09:14:55;98682.40;;;10.62
71081;BMP180;58740;50.672;18.690;2023-04-26T09:17:27;98687.20;;;10.60
71081;BMP180;58740;50.672;18.690;2023-04-26T09:19:56;98684.00;;;10.50
71081;BMP180;58740;50.672;18.690;2023-04-26T09:22:33;98695.00;;;10.38
71081;BMP180;58740;50.672;18.690;2023-04-26T09:25:05;98702.80;;;10.30
71081;BMP180;58740;50.672;18.690;2023-04-26T09:27:42;98702.20;;;10.20
71081;BMP180;58740;50.672;18.690;2023-04-26T09:30:16;98696.20;;;10.10
71081;BMP180;58740;50.672;18.690;2023-04-26T09:32:55;98700.00;;;10.12
71081;BMP180;58740;50.672;18.690;2023-04-26T09:35:38;98693.00;;;10.24
71081;BMP180;58740;50.672;18.690;2023-04-26T09:38:13;98689.60;;;10.20
71081;BMP180;58740;50.672;18.690;2023-04-26T09:40:49;98691.00;;;10.10
71081;BMP180;58740;50.672;18.690;2023-04-26T09:43:21;98689.60;;;10.10
71081;BMP180;58740;50.672;18.690;2023-04-26T09:45:55;98696.40;;;10.20
71081;BMP180;58740;50.672;18.690;2023-04-26T09:48:32;98695.00;;;10.20
71081;BMP180;58740;50.672;18.690;2023-04-26T09:51:10;98694.60;;;10.20
71081;BMP180;58740;50.672;18.690;2023-04-26T09:53:46;98697.60;;;10.10
71081;BMP180;58740;50.672;18.690;2023-04-26T09:56:19;98695.60;;;10.20
71081;BMP180;58740;50.672;18.690;2023-04-26T09:58:58;98689.20;;;10.12
71081;BMP180;58740;50.672;18.690;2023-04-26T10:01:28;98693.80;;;10.10
71081;BMP180;58740;50.672;18.690;2023-04-26T10:04:00;98699.60;;;10.00
71081;BMP180;58740;50.672;18.690;2023-04-26T10:06:28;98703.20;;;9.90
71081;BMP180;58740;50.672;18.690;2023-04-26T10:08:56;98695.40;;;9.88
71081;BMP180;58740;50.672;18.690;2023-04-26T10:11:25;98696.80;;;9.90
71081;BMP180;58740;50.672;18.690;2023-04-26T10:13:54;98688.20;;;10.10
71081;BMP180;58740;50.672;18.690;2023-04-26T10:16:22;98692.60;;;10.16
71081;BMP180;58740;50.672;18.690;2023-04-26T10:18:50;98702.60;;;10.20
71081;BMP180;58740;50.672;18.690;2023-04-26T10:21:29;98702.60;;;10.18
71081;BMP180;58740;50.672;18.690;2023-04-26T10:23:59;98699.00;;;10.10
71081;BMP180;58740;50.672;18.690;2023-04-26T10:27:03;98695.60;;;10.08
71081;BMP180;58740;50.672;18.690;2023-04-26T10:32:22;98701.60;;;10.20
71081;BMP180;58740;50.672;18.690;2023-04-26T10:35:19;98704.20;;;10.22
71081;BMP180;58740;50.672;18.690;2023-04-26T10:45:43;98707.60;;;10.10
71081;BMP180;58740;50.672;18.690;2023-04-26T10:59:11;98710.60;;;9.86
71081;BMP180;58740;50.672;18.690;2023-04-26T11:01:59;98707.20;;;9.80
71081;BMP180;58740;50.672;18.690;2023-04-26T11:04:53;98711.60;;;9.80
71081;BMP180;58740;50.672;18.690;2023-04-26T11:07:37;98704.60;;;9.90
71081;BMP180;58740;50.672;18.690;2023-04-26T11:10:09;98702.40;;;10.00
71081;BMP180;58740;50.672;18.690;2023-04-26T11:13:00;98698.00;;;10.10
71081;BMP180;58740;50.672;18.690;2023-04-26T11:15:30;98702.20;;;10.10
71081;BMP180;58740;50.672;18.690;2023-04-26T11:18:03;98704.60;;;10.10
71081;BMP180;58740;50.672;18.690;2023-04-26T11:20:33;98708.40;;;10.10
71081;BMP180;58740;50.672;18.690;2023-04-26T11:23:01;98715.40;;;10.06
71081;BMP180;58740;50.672;18.690;2023-04-26T11:25:29;98717.20;;;10.00
71081;BMP180;58740;50.672;18.690;2023-04-26T11:28:01;98721.60;;;9.94
71081;BMP180;58740;50.672;18.690;2023-04-26T11:30:31;98719.60;;;10.00
71081;BMP180;58740;50.672;18.690;2023-04-26T11:33:01;98716.20;;;10.00
71081;BMP180;58740;50.672;18.690;2023-04-26T11:35:37;98717.20;;;10.10
71081;BMP180;58740;50.672;18.690;2023-04-26T11:38:05;98714.40;;;10.10
71081;BMP180;58740;50.672;18.690;2023-04-26T11:40:34;98713.60;;;10.10
71081;BMP180;58740;50.672;18.690;2023-04-26T11:43:05;98713.20;;;10.10
71081;BMP180;58740;50.672;18.690;2023-04-26T11:45:35;98710.80;;;10.00
71081;BMP180;58740;50.672;18.690;2023-04-26T11:48:06;98718.60;;;10.00
71081;BMP180;58740;50.672;18.690;2023-04-26T11:50:37;98719.40;;;10.00
71081;BMP180;58740;50.672;18.690;2023-04-26T11:53:07;98716.20;;;10.10
71081;BMP180;58740;50.672;18.690;2023-04-26T11:55:35;98723.80;;;10.30
71081;BMP180;58740;50.672;18.690;2023-04-26T11:58:12;98714.00;;;10.40
71081;BMP180;58740;50.672;18.690;2023-04-26T12:01:00;98716.80;;;10.60
71081;BMP180;58740;50.672;18.690;2023-04-26T12:03:32;98709.40;;;10.64
71081;BMP180;58740;50.672;18.690;2023-04-26T12:06:03;98706.00;;;10.60
71081;BMP180;58740;50.672;18.690;2023-04-26T12:08:32;98706.80;;;10.52
71081;BMP180;58740;50.672;18.690;2023-04-26T12:11:01;98710.40;;;10.50
71081;BMP180;58740;50.672;18.690;2023-04-26T12:13:29;98719.40;;;10.40
71081;BMP180;58740;50.672;18.690;2023-04-26T12:15:58;98714.80;;;10.40
71081;BMP180;58740;50.672;18.690;2023-04-26T12:18:31;98716.00;;;10.40
71081;BMP180;58740;50.672;18.690;2023-04-26T12:21:00;98717.20;;;10.50
71081;BMP180;58740;50.672;18.690;2023-04-26T12:23:38;98717.40;;;10.62
71081;BMP180;58740;50.672;18.690;2023-04-26T12:26:06;98713.80;;;10.70
71081;BMP180;58740;50.672;18.690;2023-04-26T12:28:37;98713.20;;;10.70
71081;BMP180;58740;50.672;18.690;2023-04-26T12:31:04;98712.80;;;10.70
71081;BMP180;58740;50.672;18.690;2023-04-26T12:33:34;98712.40;;;10.70
71081;BMP180;58740;50.672;18.690;2023-04-26T12:36:11;98717.00;;;10.80
71081;BMP180;58740;50.672;18.690;2023-04-26T12:38:39;98703.00;;;10.90
71081;BMP180;58740;50.672;18.690;2023-04-26T12:41:07;98716.20;;;10.90
71081;BMP180;58740;50.672;18.690;2023-04-26T12:43:35;98718.00;;;10.90
71081;BMP180;58740;50.672;18.690;2023-04-26T12:46:03;98715.20;;;10.80
71081;BMP180;58740;50.672;18.690;2023-04-26T12:48:31;98727.80;;;10.70
71081;BMP180;58740;50.672;18.690;2023-04-26T12:50:59;98732.00;;;10.66
71081;BMP180;58740;50.672;18.690;2023-04-26T12:53:26;98735.20;;;10.60
71081;BMP180;58740;50.672;18.690;2023-04-26T12:55:55;98743.60;;;10.50
71081;BMP180;58740;50.672;18.690;2023-04-26T12:58:22;98745.40;;;10.40
71081;BMP180;58740;50.672;18.690;2023-04-26T13:00:50;98748.40;;;10.40
71081;BMP180;58740;50.672;18.690;2023-04-26T13:03:18;98751.60;;;10.40
71081;BMP180;58740;50.672;18.690;2023-04-26T13:05:46;98748.40;;;10.40
71081;BMP180;58740;50.672;18.690;2023-04-26T13:08:14;98748.60;;;10.40
71081;BMP180;58740;50.672;18.690;2023-04-26T13:10:42;98743.80;;;10.40
71081;BMP180;58740;50.672;18.690;2023-04-26T13:13:10;98744.00;;;10.50
71081;BMP180;58740;50.672;18.690;2023-04-26T13:15:38;98742.80;;;10.50
71081;BMP180;58740;50.672;18.690;2023-04-26T13:18:06;98738.00;;;10.48
71081;BMP180;58740;50.672;18.690;2023-04-26T13:20:34;98736.20;;;10.40
71081;BMP180;58740;50.672;18.690;2023-04-26T13:23:02;98733.60;;;10.40
71081;BMP180;58740;50.672;18.690;2023-04-26T13:25:30;98738.00;;;10.48
71081;BMP180;58740;50.672;18.690;2023-04-26T13:27:58;98743.20;;;10.50
71081;BMP180;58740;50.672;18.690;2023-04-26T13:30:26;98738.40;;;10.50
71081;BMP180;58740;50.672;18.690;2023-04-26T13:32:54;98743.20;;;10.60
71081;BMP180;58740;50.672;18.690;2023-04-26T13:35:25;98745.20;;;10.60
71081;BMP180;58740;50.672;18.690;2023-04-26T13:37:52;98756.00;;;10.60
71081;BMP180;58740;50.672;18.690;2023-04-26T13:40:20;98758.00;;;10.60
71081;BMP180;58740;50.672;18.690;2023-04-26T13:42:49;98760.20;;;10.58
71081;BMP180;58740;50.672;18.690;2023-04-26T13:45:17;98763.00;;;10.60
71081;BMP180;58740;50.672;18.690;2023-04-26T13:47:45;98764.80;;;10.64
71081;BMP180;58740;50.672;18.690;2023-04-26T13:50:13;98759.40;;;10.70
71081;BMP180;58740;50.672;18.690;2023-04-26T13:52:41;98757.00;;;10.60
71081;BMP180;58740;50.672;18.690;2023-04-26T13:55:09;98758.20;;;10.62
71081;BMP180;58740;50.672;18.690;2023-04-26T13:57:37;98752.60;;;10.60
71081;BMP180;58740;50.672;18.690;2023-04-26T14:00:06;98764.80;;;10.60
71081;BMP180;58740;50.672;18.690;2023-04-26T14:02:34;98765.00;;;10.60
71081;BMP180;58740;50.672;18.690;2023-04-26T14:05:03;98770.60;;;10.50
71081;BMP180;58740;50.672;18.690;2023-04-26T14:07:31;98778.00;;;10.50
71081;BMP180;58740;50.672;18.690;2023-04-26T14:09:59;98776.60;;;10.40
71081;BMP180;58740;50.672;18.690;2023-04-26T14:12:28;98778.20;;;10.40
71081;BMP180;58740;50.672;18.690;2023-04-26T14:14:56;98784.00;;;10.30
71081;BMP180;58740;50.672;18.690;2023-04-26T14:17:24;98784.80;;;10.20
71081;BMP180;58740;50.672;18.690;2023-04-26T14:19:54;98786.60;;;10.20
71081;BMP180;58740;50.672;18.690;2023-04-26T14:22:24;98791.60;;;10.12
71081;BMP180;58740;50.672;18.690;2023-04-26T14:24:52;98788.20;;;10.10
71081;BMP180;58740;50.672;18.690;2023-04-26T14:27:20;98788.40;;;10.10
71081;BMP180;58740;50.672;18.690;2023-04-26T14:29:48;98797.20;;;10.10
71081;BMP180;58740;50.672;18.690;2023-04-26T14:32:15;98797.80;;;10.10
71081;BMP180;58740;50.672;18.690;2023-04-26T14:34:43;98800.20;;;10.10
71081;BMP180;58740;50.672;18.690;2023-04-26T14:37:11;98799.00;;;10.10